createdAt,value
2019-02-10T00:00:32.843Z,8.10
2019-02-10T00:03:17.980Z,8.00
2019-02-10T00:06:03.058Z,8.00
2019-02-10T00:08:48.046Z,8.00
2019-02-10T00:11:32.656Z,8.00
2019-02-10T00:14:17.804Z,8.00
2019-02-10T00:17:02.341Z,8.00
2019-02-10T00:19:47.162Z,8.00
2019-02-10T00:22:31.777Z,8.00
2019-02-10T00:25:16.319Z,7.90
2019-02-10T00:28:00.795Z,7.90
2019-02-10T00:30:45.241Z,7.90
2019-02-10T00:33:29.952Z,7.90
2019-02-10T00:36:15.304Z,7.90
2019-02-10T00:38:59.921Z,7.80
2019-02-10T00:41:44.829Z,7.70
2019-02-10T00:44:29.503Z,7.60
2019-02-10T00:47:14.633Z,7.60
2019-02-10T00:49:59.303Z,7.60
2019-02-10T00:52:44.297Z,7.60
2019-02-10T00:55:29.289Z,7.60
2019-02-10T00:58:14.288Z,7.50
2019-02-10T01:00:59.035Z,7.50
2019-02-10T01:03:43.682Z,7.40
2019-02-10T01:06:28.762Z,7.40
2019-02-10T01:09:13.761Z,7.50
2019-02-10T01:11:58.409Z,7.50
2019-02-10T01:14:42.815Z,7.50
2019-02-10T01:17:27.475Z,7.40
2019-02-10T01:20:12.166Z,7.40
2019-02-10T01:22:56.982Z,7.40
2019-02-10T01:25:41.481Z,7.40
2019-02-10T01:28:25.962Z,7.40
2019-02-10T01:31:11.222Z,7.40
2019-02-10T01:33:56.139Z,7.30
2019-02-10T01:36:40.863Z,7.30
2019-02-10T01:39:26.105Z,7.30
2019-02-10T01:42:11.091Z,7.30
2019-02-10T01:44:55.656Z,7.30
2019-02-10T01:47:40.662Z,7.30
2019-02-10T01:50:25.740Z,7.30
2019-02-10T01:53:10.215Z,7.30
2019-02-10T01:55:55.263Z,7.40
2019-02-10T01:58:39.721Z,7.30
2019-02-10T02:01:24.499Z,7.40
2019-02-10T02:04:09.026Z,7.40
2019-02-10T02:06:57.808Z,7.50
2019-02-10T02:09:40.200Z,7.60
2019-02-10T02:12:24.771Z,7.60
2019-02-10T02:15:14.116Z,7.60
2019-02-10T02:17:58.860Z,7.60
2019-02-10T02:20:43.516Z,7.60
2019-02-10T02:23:28.361Z,7.60
2019-02-10T02:26:13.246Z,7.60
2019-02-10T02:28:58.152Z,7.70
2019-02-10T02:31:42.620Z,7.80
2019-02-10T02:34:27.180Z,7.80
2019-02-10T02:37:11.774Z,7.80
2019-02-10T02:39:56.247Z,7.80
2019-02-10T02:42:40.921Z,7.90
2019-02-10T02:45:26.201Z,7.90
2019-02-10T02:48:10.668Z,8.00
2019-02-10T02:50:55.365Z,8.00
2019-02-10T02:53:39.839Z,8.00
2019-02-10T02:56:24.446Z,8.00
2019-02-10T02:59:09.100Z,8.10
2019-02-10T03:01:54.230Z,8.10
2019-02-10T03:04:39.084Z,8.20
2019-02-10T03:07:23.596Z,8.10
2019-02-10T03:10:08.296Z,8.20
2019-02-10T03:12:52.582Z,8.10
2019-02-10T03:15:37.252Z,8.20
2019-02-10T03:18:21.829Z,8.20
2019-02-10T03:21:06.467Z,8.20
2019-02-10T03:23:50.971Z,8.20
2019-02-10T03:26:35.585Z,8.20
2019-02-10T03:29:20.376Z,8.20
2019-02-10T03:32:05.377Z,8.20
2019-02-10T03:34:50.454Z,8.20
2019-02-10T03:37:34.936Z,8.20
2019-02-10T03:40:19.269Z,8.20
2019-02-10T03:43:03.899Z,8.20
2019-02-10T03:45:48.538Z,8.10
2019-02-10T03:48:33.581Z,8.10
2019-02-10T03:51:18.207Z,8.10
2019-02-10T03:54:02.825Z,8.10
2019-02-10T03:56:47.752Z,8.10
2019-02-10T03:59:32.526Z,8.00
2019-02-10T04:02:17.466Z,8.00
2019-02-10T04:05:02.111Z,8.00
2019-02-10T04:07:47.161Z,8.00
2019-02-10T04:10:31.504Z,8.00
2019-02-10T04:13:15.925Z,7.90
2019-02-10T04:16:00.895Z,7.80
2019-02-10T04:18:45.497Z,7.80
2019-02-10T04:21:30.162Z,7.80
2019-02-10T04:24:14.649Z,7.70
2019-02-10T04:26:59.350Z,7.70
2019-02-10T04:29:43.904Z,7.60
2019-02-10T04:32:28.571Z,7.60
2019-02-10T04:35:13.272Z,7.60
2019-02-10T04:37:58.105Z,7.50
2019-02-10T04:40:42.620Z,7.50
2019-02-10T04:43:27.085Z,7.50
2019-02-10T04:46:11.555Z,7.40
2019-02-10T04:48:56.075Z,7.40
2019-02-10T04:51:40.720Z,7.40
2019-02-10T04:54:25.150Z,7.30
2019-02-10T04:57:09.799Z,7.20
2019-02-10T04:59:54.693Z,7.20
2019-02-10T05:02:39.429Z,7.10
2019-02-10T05:05:23.904Z,7.00
2019-02-10T05:08:08.531Z,6.90
2019-02-10T05:10:53.054Z,6.90
2019-02-10T05:13:37.571Z,6.80
2019-02-10T05:16:22.341Z,6.70
2019-02-10T05:19:06.928Z,6.60
2019-02-10T05:21:51.320Z,6.60
2019-02-10T05:24:35.940Z,6.60
2019-02-10T05:27:20.472Z,6.50
2019-02-10T05:30:05.529Z,6.50
2019-02-10T05:32:50.708Z,6.40
2019-02-10T05:35:35.112Z,6.40
2019-02-10T05:38:19.877Z,6.40
2019-02-10T05:41:04.318Z,6.40
2019-02-10T05:43:48.964Z,6.30
2019-02-10T05:46:33.593Z,6.30
2019-02-10T05:49:18.077Z,6.20
2019-02-10T05:52:02.885Z,6.20
2019-02-10T05:54:47.510Z,6.20
2019-02-10T05:57:32.200Z,6.20
2019-02-10T06:00:16.921Z,6.20
2019-02-10T06:03:01.281Z,6.20
2019-02-10T06:05:45.905Z,6.10
2019-02-10T06:08:30.427Z,6.10
2019-02-10T06:11:14.994Z,6.10
2019-02-10T06:13:59.566Z,6.10
2019-02-10T06:16:43.967Z,6.00
2019-02-10T06:19:28.661Z,6.10
2019-02-10T06:22:13.232Z,6.10
2019-02-10T06:24:58.022Z,6.10
2019-02-10T06:27:42.311Z,6.00
2019-02-10T06:30:27.004Z,6.00
2019-02-10T06:33:11.690Z,6.00
2019-02-10T06:35:56.605Z,6.00
2019-02-10T06:38:40.965Z,6.00
2019-02-10T06:41:25.656Z,6.00
2019-02-10T06:44:10.239Z,6.00
2019-02-10T06:46:55.329Z,6.00
2019-02-10T06:49:40.299Z,6.00
2019-02-10T06:52:25.519Z,6.00
2019-02-10T06:55:10.449Z,6.00
2019-02-10T06:57:55.363Z,6.10
2019-02-10T07:00:47.916Z,6.10
2019-02-10T07:03:38.509Z,6.10
2019-02-10T07:06:23.316Z,6.20
2019-02-10T07:09:08.385Z,6.20
2019-02-10T07:11:53.070Z,6.30
2019-02-10T07:14:37.594Z,6.30
2019-02-10T07:17:25.874Z,6.30
2019-02-10T07:20:37.912Z,6.40
2019-02-10T07:23:58.513Z,6.40
2019-02-10T07:26:55.290Z,6.50
2019-02-10T07:29:55.690Z,6.50
2019-02-10T07:32:50.594Z,6.50
2019-02-10T07:35:55.849Z,6.60
2019-02-10T07:38:53.149Z,6.60
2019-02-10T07:41:53.905Z,6.60
2019-02-10T07:44:51.602Z,6.60
2019-02-10T07:47:42.806Z,6.70
2019-02-10T07:50:31.356Z,6.70
2019-02-10T07:53:19.525Z,6.80
2019-02-10T07:56:19.758Z,6.80
2019-02-10T07:59:29.754Z,6.90
2019-02-10T08:02:27.386Z,7.00
2019-02-10T08:05:37.293Z,7.00
2019-02-10T08:08:46.502Z,7.10
2019-02-10T08:11:40.249Z,7.10
2019-02-10T08:14:37.688Z,7.10
2019-02-10T08:17:48.721Z,7.10
2019-02-10T08:20:43.470Z,7.20
2019-02-10T08:23:38.180Z,7.20
2019-02-10T08:26:36.013Z,7.30
2019-02-10T08:29:39.432Z,7.30
2019-02-10T08:32:31.044Z,7.40
2019-02-10T08:35:28.275Z,7.40
2019-02-10T08:38:33.206Z,7.40
2019-02-10T08:41:40.027Z,7.50
2019-02-10T08:44:31.659Z,7.50
2019-02-10T08:47:33.818Z,7.60
2019-02-10T08:50:34.570Z,7.60
2019-02-10T08:53:21.828Z,7.50
2019-02-10T08:56:06.230Z,7.50
2019-02-10T08:58:50.949Z,7.50
2019-02-10T09:01:35.446Z,7.50
2019-02-10T09:04:20.000Z,7.50
2019-02-10T09:07:04.881Z,7.50
2019-02-10T09:09:49.314Z,7.50
2019-02-10T09:12:33.914Z,7.50
2019-02-10T09:15:18.482Z,7.60
2019-02-10T09:18:03.035Z,7.70
2019-02-10T09:20:48.139Z,7.70
2019-02-10T09:23:32.739Z,7.90
2019-02-10T09:26:17.371Z,8.00
2019-02-10T09:29:02.743Z,8.20
2019-02-10T09:31:47.749Z,8.50
2019-02-10T09:34:32.309Z,8.70
2019-02-10T09:37:17.514Z,8.90
2019-02-10T09:40:04.888Z,9.10
2019-02-10T09:42:49.965Z,9.30
2019-02-10T09:45:34.531Z,9.40
2019-02-10T09:48:19.734Z,9.50
2019-02-10T09:51:04.659Z,9.50
2019-02-10T09:53:49.769Z,9.60
2019-02-10T09:56:34.389Z,9.70
2019-02-10T09:59:19.019Z,9.70
2019-02-10T10:02:04.002Z,9.70
2019-02-10T10:04:48.554Z,9.70
2019-02-10T10:07:32.976Z,9.70
2019-02-10T10:10:17.665Z,9.70
2019-02-10T10:13:02.694Z,9.80
2019-02-10T10:15:47.019Z,9.90
2019-02-10T10:18:31.930Z,10.00
2019-02-10T10:21:17.002Z,10.10
2019-02-10T10:24:02.093Z,10.20
2019-02-10T10:26:46.566Z,10.20
2019-02-10T10:29:31.211Z,10.20
2019-02-10T10:32:15.805Z,10.30
2019-02-10T10:35:00.941Z,10.40
2019-02-10T10:37:46.074Z,10.40
2019-02-10T10:40:30.837Z,10.50
2019-02-10T10:43:15.576Z,10.60
2019-02-10T10:46:00.820Z,10.60
2019-02-10T10:48:45.699Z,10.60
2019-02-10T10:51:30.737Z,10.50
2019-02-10T10:54:16.070Z,10.50
2019-02-10T10:57:00.914Z,10.50
2019-02-10T10:59:46.069Z,10.30
2019-02-10T11:02:31.606Z,10.30
2019-02-10T11:05:16.209Z,10.20
2019-02-10T11:08:00.991Z,10.00
2019-02-10T11:10:46.068Z,9.80
2019-02-10T11:13:31.153Z,9.70
2019-02-10T11:16:16.118Z,9.50
2019-02-10T11:19:01.111Z,9.40
2019-02-10T11:21:46.096Z,9.40
2019-02-10T11:24:30.831Z,9.30
2019-02-10T11:27:15.558Z,9.20
2019-02-10T11:30:00.629Z,9.10
2019-02-10T11:32:45.678Z,9.10
2019-02-10T11:35:31.023Z,9.00
2019-02-10T11:38:15.954Z,8.90
2019-02-10T11:41:00.653Z,8.90
2019-02-10T11:43:45.549Z,8.90
2019-02-10T11:46:30.010Z,8.90
2019-02-10T11:49:14.687Z,8.90
2019-02-10T11:51:59.464Z,8.90
2019-02-10T11:54:44.393Z,8.80
2019-02-10T11:57:29.577Z,8.90
2019-02-10T12:00:15.738Z,8.90
2019-02-10T12:03:00.707Z,9.00
2019-02-10T12:05:45.715Z,9.00
2019-02-10T12:08:35.697Z,8.90
2019-02-10T12:11:16.897Z,8.90
2019-02-10T12:14:01.484Z,9.00
2019-02-10T12:16:46.542Z,9.00
2019-02-10T12:19:31.425Z,9.00
2019-02-10T12:22:16.325Z,9.00
2019-02-10T12:25:01.283Z,9.00
2019-02-10T12:27:46.118Z,9.10
2019-02-10T12:30:31.064Z,9.10
2019-02-10T12:33:16.135Z,9.10
2019-02-10T12:36:00.998Z,9.10
2019-02-10T12:38:46.008Z,9.20
2019-02-10T12:41:30.550Z,9.20
2019-02-10T12:44:15.380Z,9.20
2019-02-10T12:47:00.275Z,9.30
2019-02-10T12:49:44.906Z,9.30
2019-02-10T12:52:29.815Z,9.30
2019-02-10T12:55:14.388Z,9.40
2019-02-10T12:57:59.254Z,9.40
2019-02-10T13:00:43.960Z,9.50
2019-02-10T13:03:28.998Z,9.60
2019-02-10T13:06:13.766Z,9.60
2019-02-10T13:08:58.559Z,9.70
2019-02-10T13:11:43.499Z,9.80
2019-02-10T13:14:28.272Z,9.80
2019-02-10T13:17:13.110Z,9.90
2019-02-10T13:19:58.464Z,9.90
2019-02-10T13:22:43.397Z,9.90
2019-02-10T13:25:30.663Z,10.00
2019-02-10T13:28:15.211Z,10.10
2019-02-10T13:30:59.993Z,10.10
2019-02-10T13:33:45.011Z,10.20
2019-02-10T13:36:30.069Z,10.20
2019-02-10T13:39:14.979Z,10.10
2019-02-10T13:42:00.057Z,10.10
2019-02-10T13:44:45.179Z,10.10
2019-02-10T13:47:30.380Z,10.00
2019-02-10T13:50:17.805Z,10.00
2019-02-10T13:53:03.037Z,9.90
2019-02-10T13:55:47.870Z,9.90
2019-02-10T13:58:32.640Z,9.90
2019-02-10T14:01:17.580Z,9.80
2019-02-10T14:04:02.949Z,9.70
2019-02-10T14:06:48.054Z,9.70
2019-02-10T14:09:33.063Z,9.50
2019-02-10T14:12:18.312Z,9.40
2019-02-10T14:15:07.040Z,9.30
2019-02-10T14:17:52.232Z,9.20
2019-02-10T14:20:37.075Z,9.10
2019-02-10T14:23:22.514Z,9.00
2019-02-10T14:26:07.374Z,8.90
2019-02-10T14:28:52.461Z,8.90
2019-02-10T14:31:37.471Z,8.90
2019-02-10T14:34:22.018Z,8.90
2019-02-10T14:37:07.121Z,8.80
2019-02-10T14:39:51.883Z,8.70
2019-02-10T14:42:36.975Z,8.70
2019-02-10T14:45:21.668Z,8.60
2019-02-10T14:48:06.654Z,8.60
2019-02-10T14:50:51.274Z,8.60
2019-02-10T14:53:36.413Z,8.60
2019-02-10T14:56:21.330Z,8.80
2019-02-10T14:59:05.878Z,9.00
2019-02-10T15:01:51.235Z,9.20
2019-02-10T15:04:36.195Z,9.30
2019-02-10T15:07:25.191Z,9.30
2019-02-10T15:10:13.552Z,9.20
2019-02-10T15:12:58.459Z,9.10
2019-02-10T15:15:43.036Z,9.00
2019-02-10T15:18:28.159Z,9.00
2019-02-10T15:21:13.269Z,8.90
2019-02-10T15:23:58.428Z,8.90
2019-02-10T15:26:43.336Z,8.90
2019-02-10T15:29:27.781Z,8.80
2019-02-10T15:32:16.877Z,8.80
2019-02-10T15:34:59.061Z,8.80
2019-02-10T15:37:43.931Z,8.70
2019-02-10T15:40:29.019Z,8.70
2019-02-10T15:43:14.153Z,8.60
2019-02-10T15:45:58.779Z,8.60
2019-02-10T15:48:43.932Z,8.50
2019-02-10T15:51:36.953Z,8.40
2019-02-10T15:54:15.740Z,8.20
2019-02-10T15:57:00.904Z,8.10
2019-02-10T15:59:45.573Z,8.00
2019-02-10T16:02:31.203Z,8.00
2019-02-10T16:05:16.291Z,8.00
2019-02-10T16:08:01.354Z,7.90
2019-02-10T16:10:46.388Z,7.90
2019-02-10T16:13:31.510Z,7.80
2019-02-10T16:16:16.385Z,7.80
2019-02-10T16:19:01.397Z,7.80
2019-02-10T16:21:46.778Z,7.70
2019-02-10T16:24:31.630Z,7.70
2019-02-10T16:27:16.684Z,7.70
2019-02-10T16:30:01.243Z,7.80
2019-02-10T16:32:49.902Z,7.80
2019-02-10T16:35:32.850Z,7.80
2019-02-10T16:38:17.507Z,7.80
2019-02-10T16:41:06.445Z,7.80
2019-02-10T16:43:49.367Z,7.90
2019-02-10T16:46:34.283Z,8.00
2019-02-10T16:49:19.486Z,8.00
2019-02-10T16:52:04.582Z,7.80
2019-02-10T16:54:49.444Z,7.70
2019-02-10T16:57:34.148Z,7.50
2019-02-10T17:00:19.145Z,7.40
2019-02-10T17:03:03.794Z,7.30
2019-02-10T17:05:48.783Z,7.10
2019-02-10T17:08:33.972Z,7.00
2019-02-10T17:11:19.149Z,7.00
2019-02-10T17:14:04.268Z,6.90
2019-02-10T17:16:49.389Z,6.90
2019-02-10T17:19:34.466Z,6.80
2019-02-10T17:22:19.451Z,6.70
2019-02-10T17:25:14.098Z,6.70
2019-02-10T17:27:59.242Z,6.60
2019-02-10T17:30:44.182Z,6.60
2019-02-10T17:33:29.114Z,6.60
2019-02-10T17:36:14.089Z,6.50
2019-02-10T17:38:59.420Z,6.60
2019-02-10T17:41:44.347Z,6.50
2019-02-10T17:44:29.628Z,6.50
2019-02-10T17:47:14.819Z,6.50
2019-02-10T17:50:00.260Z,6.50
2019-02-10T17:52:45.445Z,6.50
2019-02-10T17:55:30.373Z,6.50
2019-02-10T17:58:15.371Z,6.50
2019-02-10T18:01:00.445Z,6.50
2019-02-10T18:03:45.400Z,6.40
2019-02-10T18:06:30.324Z,6.40
2019-02-10T18:09:15.387Z,6.40
2019-02-10T18:12:00.128Z,6.40
2019-02-10T18:14:46.513Z,6.40
2019-02-10T18:17:33.156Z,6.40
2019-02-10T18:20:36.259Z,6.40
2019-02-10T18:23:25.602Z,6.40
2019-02-10T18:26:15.821Z,6.30
2019-02-10T18:29:05.436Z,6.30
2019-02-10T18:32:08.231Z,6.20
2019-02-10T18:35:06.567Z,6.20
2019-02-10T18:38:08.267Z,6.10
2019-02-10T18:40:57.424Z,6.10
2019-02-10T18:43:46.740Z,6.00
2019-02-10T18:46:45.697Z,6.00
2019-02-10T18:49:38.366Z,5.90
2019-02-10T18:52:28.183Z,5.80
2019-02-10T18:55:14.991Z,5.60
2019-02-10T18:58:07.684Z,5.60
2019-02-10T19:00:57.249Z,5.40
2019-02-10T19:03:46.875Z,5.40
2019-02-10T19:06:45.483Z,5.40
2019-02-10T19:09:35.201Z,5.30
2019-02-10T19:12:34.654Z,5.30
2019-02-10T19:15:37.642Z,5.20
2019-02-10T19:18:41.174Z,5.20
2019-02-10T19:21:27.976Z,5.20
2019-02-10T19:24:14.670Z,5.10
2019-02-10T19:27:12.957Z,5.00
2019-02-10T19:30:02.437Z,5.00
2019-02-10T19:32:49.247Z,4.80
2019-02-10T19:35:38.699Z,4.60
2019-02-10T19:38:41.934Z,4.60
2019-02-10T19:41:37.474Z,4.40
2019-02-10T19:44:33.243Z,4.30
2019-02-10T19:47:34.637Z,4.30
2019-02-10T19:50:30.140Z,4.20
2019-02-10T19:53:23.369Z,4.20
2019-02-10T19:56:13.054Z,4.10
2019-02-10T19:59:05.778Z,4.00
2019-02-10T20:02:11.025Z,3.90
2019-02-10T20:05:00.657Z,3.90
2019-02-10T20:07:47.593Z,3.80
2019-02-10T20:10:34.151Z,3.60
2019-02-10T20:13:20.768Z,3.50
2019-02-10T20:16:09.861Z,3.30
2019-02-10T20:19:04.966Z,3.20
2019-02-10T20:22:06.792Z,3.10
2019-02-10T20:25:05.458Z,3.00
2019-02-10T20:27:58.033Z,2.90
2019-02-10T20:30:45.207Z,2.90
2019-02-10T20:33:43.898Z,2.90
2019-02-10T20:36:47.732Z,2.90
2019-02-10T20:39:34.252Z,2.90
2019-02-10T20:42:33.294Z,2.90
2019-02-10T20:45:25.645Z,2.90
2019-02-10T20:48:15.910Z,3.00
2019-02-10T20:51:11.509Z,3.00
2019-02-10T20:54:07.068Z,3.00
2019-02-10T20:56:56.417Z,3.10
2019-02-10T20:59:43.372Z,3.10
2019-02-10T21:02:33.355Z,3.10
2019-02-10T21:05:31.686Z,3.10
2019-02-10T21:08:35.460Z,3.00
2019-02-10T21:11:28.295Z,3.00
2019-02-10T21:14:30.752Z,3.00
2019-02-10T21:17:23.095Z,3.00
2019-02-10T21:20:15.499Z,2.90
2019-02-10T21:23:13.582Z,2.90
2019-02-10T21:26:15.467Z,2.90
2019-02-10T21:29:18.947Z,2.90
2019-02-10T21:32:23.555Z,2.80
2019-02-10T21:35:16.269Z,2.80
2019-02-10T21:38:19.642Z,2.80
2019-02-10T21:41:11.852Z,2.70
2019-02-10T21:43:58.544Z,2.70
2019-02-10T21:47:00.142Z,2.70
2019-02-10T21:49:45.218Z,2.70
2019-02-10T21:52:30.494Z,2.70
2019-02-10T21:55:16.669Z,2.60
2019-02-10T21:58:01.668Z,2.60
2019-02-10T22:00:46.152Z,2.50
2019-02-10T22:03:30.696Z,2.50
2019-02-10T22:06:16.577Z,2.50
2019-02-10T22:09:01.438Z,2.50
2019-02-10T22:11:46.320Z,2.50
2019-02-10T22:14:30.812Z,2.50
2019-02-10T22:17:15.661Z,2.50
2019-02-10T22:20:00.673Z,2.40
2019-02-10T22:22:45.208Z,2.40
2019-02-10T22:25:29.589Z,2.40
2019-02-10T22:28:14.397Z,2.50
2019-02-10T22:30:59.612Z,2.40
2019-02-10T22:33:51.337Z,2.40
2019-02-10T22:36:31.270Z,2.40
2019-02-10T22:39:16.197Z,2.40
2019-02-10T22:42:00.776Z,2.40
2019-02-10T22:44:45.181Z,2.40
2019-02-10T22:47:29.876Z,2.40
2019-02-10T22:50:14.747Z,2.40
2019-02-10T22:52:59.504Z,2.40
2019-02-10T22:55:44.305Z,2.40
2019-02-10T22:58:28.765Z,2.40
2019-02-10T23:01:13.932Z,2.40
2019-02-10T23:03:58.516Z,2.40
2019-02-10T23:06:43.270Z,2.40
2019-02-10T23:09:28.329Z,2.40
2019-02-10T23:12:13.061Z,2.40
2019-02-10T23:14:57.802Z,2.40
2019-02-10T23:17:42.380Z,2.50
2019-02-10T23:20:27.426Z,2.50
2019-02-10T23:23:11.930Z,2.40
2019-02-10T23:25:56.473Z,2.40
2019-02-10T23:28:41.112Z,2.40
2019-02-10T23:31:26.224Z,2.40
2019-02-10T23:34:11.200Z,2.30
2019-02-10T23:36:55.812Z,2.30
2019-02-10T23:39:40.565Z,2.30
2019-02-10T23:42:24.993Z,2.30
2019-02-10T23:45:09.776Z,2.30
2019-02-10T23:47:54.862Z,2.30
2019-02-10T23:50:39.357Z,2.30
2019-02-10T23:53:24.019Z,2.20
2019-02-10T23:56:09.021Z,2.20
2019-02-10T23:58:53.390Z,2.20
